sensor_id;sensor_type;location;lat;lon;timestamp;P1;durP1;ratioP1;P2;durP2;ratioP2
1747;SDS011;871;47.034;15.394;2022-09-01T00:00:00;49.50;;;14.80;;
1747;SDS011;871;47.034;15.394;2022-09-01T00:02:26;49.10;;;14.00;;
1747;SDS011;871;47.034;15.394;2022-09-01T00:04:53;47.17;;;12.87;;
1747;SDS011;871;47.034;15.394;2022-09-01T00:07:22;50.20;;;14.40;;
1747;SDS011;871;47.034;15.394;2022-09-01T00:09:48;52.50;;;14.27;;
1747;SDS011;871;47.034;15.394;2022-09-01T00:12:15;59.43;;;14.70;;
1747;SDS011;871;47.034;15.394;2022-09-01T00:14:41;49.43;;;14.40;;
1747;SDS011;871;47.034;15.394;2022-09-01T00:17:11;49.40;;;14.80;;
1747;SDS011;871;47.034;15.394;2022-09-01T00:19:37;50.53;;;14.43;;
1747;SDS011;871;47.034;15.394;2022-09-01T00:22:04;54.80;;;13.90;;
1747;SDS011;871;47.034;15.394;2022-09-01T00:24:31;54.30;;;15.53;;
1747;SDS011;871;47.034;15.394;2022-09-01T00:26:57;50.47;;;13.63;;
1747;SDS011;871;47.034;15.394;2022-09-01T00:29:23;54.07;;;13.60;;
1747;SDS011;871;47.034;15.394;2022-09-01T00:31:49;48.30;;;14.50;;
1747;SDS011;871;47.034;15.394;2022-09-01T00:34:16;49.87;;;13.50;;
1747;SDS011;871;47.034;15.394;2022-09-01T00:36:42;50.57;;;13.80;;
1747;SDS011;871;47.034;15.394;2022-09-01T00:39:09;47.47;;;13.33;;
1747;SDS011;871;47.034;15.394;2022-09-01T00:41:36;45.67;;;11.87;;
1747;SDS011;871;47.034;15.394;2022-09-01T00:44:07;48.20;;;13.07;;
1747;SDS011;871;47.034;15.394;2022-09-01T00:46:38;45.07;;;12.10;;
1747;SDS011;871;47.034;15.394;2022-09-01T00:49:19;46.17;;;11.40;;
1747;SDS011;871;47.034;15.394;2022-09-01T00:51:48;46.70;;;12.50;;
1747;SDS011;871;47.034;15.394;2022-09-01T00:54:20;53.00;;;14.60;;
1747;SDS011;871;47.034;15.394;2022-09-01T00:56:47;50.80;;;13.80;;
1747;SDS011;871;47.034;15.394;2022-09-01T00:59:13;50.83;;;13.77;;
1747;SDS011;871;47.034;15.394;2022-09-01T01:01:41;53.20;;;14.53;;
1747;SDS011;871;47.034;15.394;2022-09-01T01:04:07;50.27;;;14.00;;
1747;SDS011;871;47.034;15.394;2022-09-01T01:07:00;49.03;;;13.50;;
1747;SDS011;871;47.034;15.394;2022-09-01T01:09:32;55.27;;;14.40;;
1747;SDS011;871;47.034;15.394;2022-09-01T01:12:01;52.00;;;14.33;;
1747;SDS011;871;47.034;15.394;2022-09-01T01:14:28;47.90;;;13.20;;
1747;SDS011;871;47.034;15.394;2022-09-01T01:16:57;48.47;;;13.47;;
1747;SDS011;871;47.034;15.394;2022-09-01T01:22:11;48.60;;;13.37;;
1747;SDS011;871;47.034;15.394;2022-09-01T01:24:57;49.13;;;13.70;;
1747;SDS011;871;47.034;15.394;2022-09-01T01:27:29;50.57;;;13.50;;
1747;SDS011;871;47.034;15.394;2022-09-01T01:29:55;52.50;;;12.77;;
1747;SDS011;871;47.034;15.394;2022-09-01T01:32:21;51.00;;;13.47;;
1747;SDS011;871;47.034;15.394;2022-09-01T01:34:48;48.20;;;13.77;;
1747;SDS011;871;47.034;15.394;2022-09-01T01:37:14;50.57;;;12.70;;
1747;SDS011;871;47.034;15.394;2022-09-01T01:39:41;51.00;;;13.77;;
1747;SDS011;871;47.034;15.394;2022-09-01T01:42:08;52.83;;;13.40;;
1747;SDS011;871;47.034;15.394;2022-09-01T01:44:36;49.40;;;12.90;;
1747;SDS011;871;47.034;15.394;2022-09-01T01:47:03;49.40;;;13.40;;
1747;SDS011;871;47.034;15.394;2022-09-01T01:49:32;50.43;;;13.83;;
1747;SDS011;871;47.034;15.394;2022-09-01T01:51:58;48.30;;;12.30;;
1747;SDS011;871;47.034;15.394;2022-09-01T01:54:25;50.00;;;13.43;;
1747;SDS011;871;47.034;15.394;2022-09-01T01:56:53;49.20;;;12.03;;
1747;SDS011;871;47.034;15.394;2022-09-01T01:59:21;46.80;;;11.70;;
1747;SDS011;871;47.034;15.394;2022-09-01T02:01:48;47.83;;;12.37;;
1747;SDS011;871;47.034;15.394;2022-09-01T02:04:16;50.20;;;12.90;;
1747;SDS011;871;47.034;15.394;2022-09-01T02:06:44;49.60;;;10.13;;
1747;SDS011;871;47.034;15.394;2022-09-01T02:09:12;47.20;;;10.77;;
1747;SDS011;871;47.034;15.394;2022-09-01T02:11:39;45.23;;;7.83;;
1747;SDS011;871;47.034;15.394;2022-09-01T02:14:06;43.20;;;7.83;;
1747;SDS011;871;47.034;15.394;2022-09-01T02:16:32;45.47;;;7.50;;
1747;SDS011;871;47.034;15.394;2022-09-01T02:18:59;43.97;;;8.03;;
1747;SDS011;871;47.034;15.394;2022-09-01T02:21:26;44.17;;;8.03;;
1747;SDS011;871;47.034;15.394;2022-09-01T02:23:54;42.50;;;7.03;;
1747;SDS011;871;47.034;15.394;2022-09-01T02:26:28;42.90;;;7.53;;
1747;SDS011;871;47.034;15.394;2022-09-01T02:29:00;43.50;;;7.60;;
1747;SDS011;871;47.034;15.394;2022-09-01T02:31:29;42.50;;;7.37;;
1747;SDS011;871;47.034;15.394;2022-09-01T02:33:56;41.70;;;6.30;;
1747;SDS011;871;47.034;15.394;2022-09-01T02:36:22;43.40;;;7.13;;
1747;SDS011;871;47.034;15.394;2022-09-01T02:38:49;42.73;;;6.30;;
1747;SDS011;871;47.034;15.394;2022-09-01T02:41:16;43.07;;;6.70;;
1747;SDS011;871;47.034;15.394;2022-09-01T02:43:47;41.80;;;6.90;;
1747;SDS011;871;47.034;15.394;2022-09-01T02:46:13;42.67;;;7.10;;
1747;SDS011;871;47.034;15.394;2022-09-01T02:48:41;42.90;;;7.90;;
1747;SDS011;871;47.034;15.394;2022-09-01T02:51:14;42.70;;;7.93;;
1747;SDS011;871;47.034;15.394;2022-09-01T02:53:41;42.57;;;7.20;;
1747;SDS011;871;47.034;15.394;2022-09-01T02:56:10;43.70;;;8.50;;
1747;SDS011;871;47.034;15.394;2022-09-01T02:58:39;44.37;;;8.90;;
1747;SDS011;871;47.034;15.394;2022-09-01T03:01:11;43.00;;;8.70;;
1747;SDS011;871;47.034;15.394;2022-09-01T03:03:37;42.57;;;8.60;;
1747;SDS011;871;47.034;15.394;2022-09-01T03:06:03;42.60;;;9.17;;
1747;SDS011;871;47.034;15.394;2022-09-01T03:08:33;42.37;;;8.97;;
1747;SDS011;871;47.034;15.394;2022-09-01T03:11:02;43.53;;;8.47;;
1747;SDS011;871;47.034;15.394;2022-09-01T03:13:31;44.10;;;8.70;;
1747;SDS011;871;47.034;15.394;2022-09-01T03:15:58;43.13;;;8.03;;
1747;SDS011;871;47.034;15.394;2022-09-01T03:18:25;44.07;;;8.20;;
1747;SDS011;871;47.034;15.394;2022-09-01T03:20:51;43.73;;;8.23;;
1747;SDS011;871;47.034;15.394;2022-09-01T03:23:17;42.87;;;8.00;;
1747;SDS011;871;47.034;15.394;2022-09-01T03:25:44;42.97;;;8.80;;
1747;SDS011;871;47.034;15.394;2022-09-01T03:28:10;43.60;;;8.60;;
1747;SDS011;871;47.034;15.394;2022-09-01T03:30:37;45.90;;;9.00;;
1747;SDS011;871;47.034;15.394;2022-09-01T03:33:05;43.33;;;9.13;;
1747;SDS011;871;47.034;15.394;2022-09-01T03:35:31;46.00;;;10.70;;
1747;SDS011;871;47.034;15.394;2022-09-01T03:37:58;45.77;;;9.10;;
1747;SDS011;871;47.034;15.394;2022-09-01T03:40:25;46.60;;;9.93;;
1747;SDS011;871;47.034;15.394;2022-09-01T03:42:52;43.47;;;9.73;;
1747;SDS011;871;47.034;15.394;2022-09-01T03:45:19;43.17;;;9.40;;
1747;SDS011;871;47.034;15.394;2022-09-01T03:47:46;42.20;;;8.60;;
1747;SDS011;871;47.034;15.394;2022-09-01T03:50:14;44.90;;;9.80;;
1747;SDS011;871;47.034;15.394;2022-09-01T03:52:46;42.80;;;9.70;;
1747;SDS011;871;47.034;15.394;2022-09-01T03:55:13;45.37;;;10.47;;
1747;SDS011;871;47.034;15.394;2022-09-01T03:57:42;47.53;;;11.43;;
1747;SDS011;871;47.034;15.394;2022-09-01T04:00:11;44.80;;;10.77;;
1747;SDS011;871;47.034;15.394;2022-09-01T04:02:44;43.80;;;10.60;;
1747;SDS011;871;47.034;15.394;2022-09-01T04:05:13;46.37;;;10.70;;
1747;SDS011;871;47.034;15.394;2022-09-01T04:07:39;44.90;;;11.50;;
1747;SDS011;871;47.034;15.394;2022-09-01T04:10:05;48.53;;;11.70;;
1747;SDS011;871;47.034;15.394;2022-09-01T04:12:35;45.20;;;10.70;;
1747;SDS011;871;47.034;15.394;2022-09-01T04:15:04;47.60;;;12.37;;
1747;SDS011;871;47.034;15.394;2022-09-01T04:17:33;44.90;;;10.63;;
1747;SDS011;871;47.034;15.394;2022-09-01T04:20:18;48.40;;;9.77;;
1747;SDS011;871;47.034;15.394;2022-09-01T04:22:48;47.97;;;10.50;;
1747;SDS011;871;47.034;15.394;2022-09-01T04:25:15;46.60;;;9.70;;
1747;SDS011;871;47.034;15.394;2022-09-01T04:27:41;45.03;;;8.80;;
1747;SDS011;871;47.034;15.394;2022-09-01T04:30:09;43.57;;;7.90;;
1747;SDS011;871;47.034;15.394;2022-09-01T04:32:35;43.90;;;7.50;;
1747;SDS011;871;47.034;15.394;2022-09-01T04:35:02;43.60;;;8.33;;
1747;SDS011;871;47.034;15.394;2022-09-01T04:37:29;42.90;;;7.73;;
1747;SDS011;871;47.034;15.394;2022-09-01T04:39:55;43.00;;;7.40;;
1747;SDS011;871;47.034;15.394;2022-09-01T04:42:22;41.80;;;6.60;;
1747;SDS011;871;47.034;15.394;2022-09-01T04:44:50;42.27;;;6.87;;
1747;SDS011;871;47.034;15.394;2022-09-01T04:47:16;46.97;;;7.70;;
1747;SDS011;871;47.034;15.394;2022-09-01T04:49:44;41.70;;;5.70;;
1747;SDS011;871;47.034;15.394;2022-09-01T04:52:11;41.60;;;6.10;;
1747;SDS011;871;47.034;15.394;2022-09-01T04:54:37;45.83;;;6.50;;
1747;SDS011;871;47.034;15.394;2022-09-01T04:57:04;42.30;;;6.27;;
1747;SDS011;871;47.034;15.394;2022-09-01T04:59:33;42.40;;;6.37;;
1747;SDS011;871;47.034;15.394;2022-09-01T05:01:59;43.97;;;6.13;;
1747;SDS011;871;47.034;15.394;2022-09-01T05:04:27;42.97;;;6.23;;
1747;SDS011;871;47.034;15.394;2022-09-01T05:06:56;43.33;;;6.10;;
1747;SDS011;871;47.034;15.394;2022-09-01T05:09:26;43.57;;;5.67;;
1747;SDS011;871;47.034;15.394;2022-09-01T05:11:53;41.97;;;6.17;;
1747;SDS011;871;47.034;15.394;2022-09-01T05:14:20;42.87;;;6.07;;
1747;SDS011;871;47.034;15.394;2022-09-01T05:16:48;41.80;;;5.77;;
1747;SDS011;871;47.034;15.394;2022-09-01T05:19:15;42.80;;;6.30;;
1747;SDS011;871;47.034;15.394;2022-09-01T05:21:42;41.60;;;5.80;;
1747;SDS011;871;47.034;15.394;2022-09-01T05:24:09;43.63;;;7.13;;
1747;SDS011;871;47.034;15.394;2022-09-01T05:26:36;42.40;;;5.50;;
1747;SDS011;871;47.034;15.394;2022-09-01T05:29:05;42.23;;;5.60;;
1747;SDS011;871;47.034;15.394;2022-09-01T05:31:38;42.27;;;6.30;;
1747;SDS011;871;47.034;15.394;2022-09-01T05:34:04;41.90;;;6.20;;
1747;SDS011;871;47.034;15.394;2022-09-01T05:36:37;43.10;;;6.60;;
1747;SDS011;871;47.034;15.394;2022-09-01T05:39:06;42.70;;;5.83;;
1747;SDS011;871;47.034;15.394;2022-09-01T05:41:37;41.97;;;6.10;;
1747;SDS011;871;47.034;15.394;2022-09-01T05:44:04;41.77;;;5.57;;
1747;SDS011;871;47.034;15.394;2022-09-01T05:46:32;42.00;;;5.73;;
1747;SDS011;871;47.034;15.394;2022-09-01T05:48:58;43.57;;;6.37;;
1747;SDS011;871;47.034;15.394;2022-09-01T05:51:26;44.00;;;6.80;;
1747;SDS011;871;47.034;15.394;2022-09-01T05:53:53;45.03;;;6.90;;
1747;SDS011;871;47.034;15.394;2022-09-01T05:56:26;45.90;;;7.73;;
1747;SDS011;871;47.034;15.394;2022-09-01T05:58:52;43.87;;;8.20;;
1747;SDS011;871;47.034;15.394;2022-09-01T06:01:19;44.23;;;7.10;;
1747;SDS011;871;47.034;15.394;2022-09-01T06:03:47;44.53;;;7.37;;
1747;SDS011;871;47.034;15.394;2022-09-01T06:06:14;46.27;;;7.40;;
1747;SDS011;871;47.034;15.394;2022-09-01T06:08:41;44.67;;;8.60;;
1747;SDS011;871;47.034;15.394;2022-09-01T06:11:10;46.70;;;7.53;;
1747;SDS011;871;47.034;15.394;2022-09-01T06:13:41;43.23;;;7.40;;
1747;SDS011;871;47.034;15.394;2022-09-01T06:16:08;43.93;;;7.10;;
1747;SDS011;871;47.034;15.394;2022-09-01T06:18:36;42.70;;;7.37;;
1747;SDS011;871;47.034;15.394;2022-09-01T06:21:02;44.10;;;7.83;;
1747;SDS011;871;47.034;15.394;2022-09-01T06:23:28;47.20;;;7.87;;
1747;SDS011;871;47.034;15.394;2022-09-01T06:25:55;43.80;;;8.30;;
1747;SDS011;871;47.034;15.394;2022-09-01T06:28:23;42.97;;;7.70;;
1747;SDS011;871;47.034;15.394;2022-09-01T06:30:50;43.43;;;7.70;;
1747;SDS011;871;47.034;15.394;2022-09-01T06:33:18;43.43;;;8.20;;
1747;SDS011;871;47.034;15.394;2022-09-01T06:35:45;42.57;;;6.83;;
1747;SDS011;871;47.034;15.394;2022-09-01T06:38:11;45.97;;;8.57;;
1747;SDS011;871;47.034;15.394;2022-09-01T06:40:39;45.83;;;7.30;;
1747;SDS011;871;47.034;15.394;2022-09-01T06:43:06;43.60;;;7.10;;
1747;SDS011;871;47.034;15.394;2022-09-01T06:45:33;43.17;;;7.00;;
1747;SDS011;871;47.034;15.394;2022-09-01T06:48:01;44.17;;;6.57;;
1747;SDS011;871;47.034;15.394;2022-09-01T06:50:28;42.33;;;5.90;;
1747;SDS011;871;47.034;15.394;2022-09-01T06:52:54;42.53;;;5.87;;
1747;SDS011;871;47.034;15.394;2022-09-01T06:55:34;42.03;;;5.70;;
1747;SDS011;871;47.034;15.394;2022-09-01T06:58:01;42.27;;;5.13;;
1747;SDS011;871;47.034;15.394;2022-09-01T07:00:30;41.60;;;4.70;;
1747;SDS011;871;47.034;15.394;2022-09-01T07:02:56;43.20;;;4.70;;
1747;SDS011;871;47.034;15.394;2022-09-01T07:05:23;42.10;;;4.30;;
1747;SDS011;871;47.034;15.394;2022-09-01T07:07:53;42.90;;;4.70;;
1747;SDS011;871;47.034;15.394;2022-09-01T07:10:23;41.23;;;4.30;;
1747;SDS011;871;47.034;15.394;2022-09-01T07:12:50;42.77;;;4.57;;
1747;SDS011;871;47.034;15.394;2022-09-01T07:15:17;40.97;;;4.30;;
1747;SDS011;871;47.034;15.394;2022-09-01T07:17:54;42.40;;;4.20;;
1747;SDS011;871;47.034;15.394;2022-09-01T07:20:21;40.47;;;4.17;;
1747;SDS011;871;47.034;15.394;2022-09-01T07:22:48;40.90;;;4.00;;
1747;SDS011;871;47.034;15.394;2022-09-01T07:25:14;43.57;;;5.00;;
1747;SDS011;871;47.034;15.394;2022-09-01T07:27:41;41.10;;;4.07;;
1747;SDS011;871;47.034;15.394;2022-09-01T07:30:18;42.90;;;4.10;;
1747;SDS011;871;47.034;15.394;2022-09-01T07:32:44;40.83;;;4.10;;
1747;SDS011;871;47.034;15.394;2022-09-01T07:35:14;42.27;;;4.63;;
1747;SDS011;871;47.034;15.394;2022-09-01T07:37:40;42.07;;;4.37;;
1747;SDS011;871;47.034;15.394;2022-09-01T07:40:11;41.10;;;4.13;;
1747;SDS011;871;47.034;15.394;2022-09-01T07:42:52;41.40;;;4.10;;
1747;SDS011;871;47.034;15.394;2022-09-01T07:45:18;40.90;;;3.80;;
1747;SDS011;871;47.034;15.394;2022-09-01T07:47:50;41.83;;;4.20;;
1747;SDS011;871;47.034;15.394;2022-09-01T07:50:16;41.30;;;3.87;;
1747;SDS011;871;47.034;15.394;2022-09-01T07:52:43;42.07;;;5.03;;
1747;SDS011;871;47.034;15.394;2022-09-01T07:55:14;40.27;;;3.37;;
1747;SDS011;871;47.034;15.394;2022-09-01T07:57:41;43.90;;;4.60;;
1747;SDS011;871;47.034;15.394;2022-09-01T08:00:11;41.20;;;4.30;;
1747;SDS011;871;47.034;15.394;2022-09-01T08:02:37;42.70;;;3.77;;
1747;SDS011;871;47.034;15.394;2022-09-01T08:05:08;39.90;;;3.30;;
1747;SDS011;871;47.034;15.394;2022-09-01T08:07:35;40.87;;;4.17;;
1747;SDS011;871;47.034;15.394;2022-09-01T08:10:03;41.30;;;4.10;;
1747;SDS011;871;47.034;15.394;2022-09-01T08:12:29;42.00;;;4.40;;
1747;SDS011;871;47.034;15.394;2022-09-01T08:14:55;47.53;;;4.60;;
1747;SDS011;871;47.034;15.394;2022-09-01T08:17:24;41.83;;;3.93;;
1747;SDS011;871;47.034;15.394;2022-09-01T08:19:50;43.50;;;3.90;;
1747;SDS011;871;47.034;15.394;2022-09-01T08:22:17;41.20;;;4.07;;
1747;SDS011;871;47.034;15.394;2022-09-01T08:24:47;41.70;;;4.20;;
1747;SDS011;871;47.034;15.394;2022-09-01T08:27:13;45.30;;;4.47;;
1747;SDS011;871;47.034;15.394;2022-09-01T08:29:39;41.57;;;4.07;;
1747;SDS011;871;47.034;15.394;2022-09-01T08:32:06;42.67;;;4.20;;
1747;SDS011;871;47.034;15.394;2022-09-01T08:34:33;40.50;;;3.83;;
1747;SDS011;871;47.034;15.394;2022-09-01T08:37:01;42.77;;;3.90;;
1747;SDS011;871;47.034;15.394;2022-09-01T08:39:29;42.60;;;3.83;;
1747;SDS011;871;47.034;15.394;2022-09-01T08:44:30;42.07;;;3.60;;
1747;SDS011;871;47.034;15.394;2022-09-01T08:46:58;42.50;;;3.87;;
1747;SDS011;871;47.034;15.394;2022-09-01T08:49:25;41.27;;;3.90;;
1747;SDS011;871;47.034;15.394;2022-09-01T08:52:04;42.50;;;4.23;;
1747;SDS011;871;47.034;15.394;2022-09-01T08:54:43;41.07;;;3.67;;
1747;SDS011;871;47.034;15.394;2022-09-01T08:57:13;41.80;;;3.50;;
1747;SDS011;871;47.034;15.394;2022-09-01T08:59:41;41.07;;;3.47;;
1747;SDS011;871;47.034;15.394;2022-09-01T09:05:00;41.70;;;3.73;;
1747;SDS011;871;47.034;15.394;2022-09-01T09:09:58;41.47;;;3.20;;
1747;SDS011;871;47.034;15.394;2022-09-01T09:18:13;41.47;;;3.30;;
1747;SDS011;871;47.034;15.394;2022-09-01T09:20:42;40.77;;;3.70;;
1747;SDS011;871;47.034;15.394;2022-09-01T09:23:20;41.30;;;3.97;;
1747;SDS011;871;47.034;15.394;2022-09-01T09:25:50;42.07;;;3.90;;
1747;SDS011;871;47.034;15.394;2022-09-01T09:28:16;42.73;;;3.60;;
1747;SDS011;871;47.034;15.394;2022-09-01T09:30:42;42.47;;;3.93;;
1747;SDS011;871;47.034;15.394;2022-09-01T09:33:08;41.80;;;3.83;;
1747;SDS011;871;47.034;15.394;2022-09-01T09:40:56;42.10;;;4.20;;
1747;SDS011;871;47.034;15.394;2022-09-01T09:43:23;41.37;;;3.50;;
1747;SDS011;871;47.034;15.394;2022-09-01T09:45:50;43.17;;;3.60;;
1747;SDS011;871;47.034;15.394;2022-09-01T09:48:29;41.03;;;3.70;;
1747;SDS011;871;47.034;15.394;2022-09-01T09:51:14;41.47;;;4.20;;
1747;SDS011;871;47.034;15.394;2022-09-01T09:53:41;42.00;;;4.00;;
1747;SDS011;871;47.034;15.394;2022-09-01T09:56:18;40.77;;;4.07;;
1747;SDS011;871;47.034;15.394;2022-09-01T09:58:46;42.10;;;3.80;;
1747;SDS011;871;47.034;15.394;2022-09-01T10:03:49;43.90;;;4.07;;
1747;SDS011;871;47.034;15.394;2022-09-01T10:06:38;41.77;;;3.80;;
1747;SDS011;871;47.034;15.394;2022-09-01T10:09:04;42.63;;;3.70;;
1747;SDS011;871;47.034;15.394;2022-09-01T10:11:33;41.20;;;3.93;;
1747;SDS011;871;47.034;15.394;2022-09-01T10:14:03;43.30;;;3.80;;
1747;SDS011;871;47.034;15.394;2022-09-01T10:16:30;41.20;;;3.67;;
1747;SDS011;871;47.034;15.394;2022-09-01T10:19:00;41.00;;;3.20;;
1747;SDS011;871;47.034;15.394;2022-09-01T10:21:29;41.20;;;3.40;;
1747;SDS011;871;47.034;15.394;2022-09-01T10:23:57;40.57;;;3.23;;
1747;SDS011;871;47.034;15.394;2022-09-01T10:26:29;41.53;;;3.80;;
1747;SDS011;871;47.034;15.394;2022-09-01T10:29:05;42.17;;;3.43;;
1747;SDS011;871;47.034;15.394;2022-09-01T10:31:32;42.17;;;4.50;;
1747;SDS011;871;47.034;15.394;2022-09-01T10:34:00;41.60;;;3.63;;
1747;SDS011;871;47.034;15.394;2022-09-01T10:36:27;42.67;;;3.80;;
1747;SDS011;871;47.034;15.394;2022-09-01T10:38:54;40.70;;;3.37;;
1747;SDS011;871;47.034;15.394;2022-09-01T10:44:09;42.20;;;3.30;;
1747;SDS011;871;47.034;15.394;2022-09-01T10:49:12;40.77;;;3.00;;
1747;SDS011;871;47.034;15.394;2022-09-01T10:51:43;40.60;;;2.83;;
1747;SDS011;871;47.034;15.394;2022-09-01T10:54:46;40.97;;;3.27;;
1747;SDS011;871;47.034;15.394;2022-09-01T10:56:56;41.40;;;3.30;;
1747;SDS011;871;47.034;15.394;2022-09-01T10:59:27;40.57;;;3.07;;
1747;SDS011;871;47.034;15.394;2022-09-01T11:04:23;41.17;;;3.73;;
1747;SDS011;871;47.034;15.394;2022-09-01T11:09:44;43.60;;;5.40;;
1747;SDS011;871;47.034;15.394;2022-09-01T11:14:54;42.13;;;5.17;;
1747;SDS011;871;47.034;15.394;2022-09-01T11:20:09;42.57;;;5.30;;
1747;SDS011;871;47.034;15.394;2022-09-01T11:30:21;43.20;;;5.77;;
1747;SDS011;871;47.034;15.394;2022-09-01T11:32:50;43.20;;;5.27;;
1747;SDS011;871;47.034;15.394;2022-09-01T11:35:19;42.60;;;5.63;;
1747;SDS011;871;47.034;15.394;2022-09-01T11:37:49;44.90;;;5.53;;
1747;SDS011;871;47.034;15.394;2022-09-01T11:40:23;42.17;;;4.70;;
1747;SDS011;871;47.034;15.394;2022-09-01T11:42:51;43.17;;;5.27;;
1747;SDS011;871;47.034;15.394;2022-09-01T11:45:23;46.07;;;5.00;;
1747;SDS011;871;47.034;15.394;2022-09-01T11:47:55;42.17;;;5.90;;
1747;SDS011;871;47.034;15.394;2022-09-01T11:50:26;43.07;;;4.87;;
1747;SDS011;871;47.034;15.394;2022-09-01T11:52:58;42.00;;;5.10;;
1747;SDS011;871;47.034;15.394;2022-09-01T11:56:11;42.40;;;5.43;;
1747;SDS011;871;47.034;15.394;2022-09-01T12:00:55;42.17;;;5.40;;
1747;SDS011;871;47.034;15.394;2022-09-01T12:03:22;44.20;;;4.83;;
1747;SDS011;871;47.034;15.394;2022-09-01T12:06:02;42.10;;;4.23;;
1747;SDS011;871;47.034;15.394;2022-09-01T12:08:34;42.20;;;5.23;;
1747;SDS011;871;47.034;15.394;2022-09-01T12:11:04;41.77;;;4.97;;
1747;SDS011;871;47.034;15.394;2022-09-01T12:13:30;43.00;;;4.83;;
1747;SDS011;871;47.034;15.394;2022-09-01T12:15:58;41.10;;;4.50;;
1747;SDS011;871;47.034;15.394;2022-09-01T12:18:29;42.00;;;5.17;;
1747;SDS011;871;47.034;15.394;2022-09-01T12:21:16;41.27;;;3.90;;
1747;SDS011;871;47.034;15.394;2022-09-01T12:23:44;42.33;;;4.03;;
1747;SDS011;871;47.034;15.394;2022-09-01T12:26:22;44.90;;;4.23;;
1747;SDS011;871;47.034;15.394;2022-09-01T12:28:51;41.93;;;4.50;;
1747;SDS011;871;47.034;15.394;2022-09-01T12:31:18;41.90;;;4.50;;
1747;SDS011;871;47.034;15.394;2022-09-01T12:33:47;41.77;;;4.07;;
1747;SDS011;871;47.034;15.394;2022-09-01T12:36:14;44.23;;;5.33;;
1747;SDS011;871;47.034;15.394;2022-09-01T12:38:44;44.73;;;4.37;;
1747;SDS011;871;47.034;15.394;2022-09-01T12:43:49;43.37;;;4.23;;
1747;SDS011;871;47.034;15.394;2022-09-01T12:46:38;41.60;;;4.13;;
1747;SDS011;871;47.034;15.394;2022-09-01T12:51:45;44.10;;;3.33;;
1747;SDS011;871;47.034;15.394;2022-09-01T12:54:13;41.00;;;4.13;;
1747;SDS011;871;47.034;15.394;2022-09-01T12:56:45;41.93;;;4.17;;
1747;SDS011;871;47.034;15.394;2022-09-01T12:59:13;44.07;;;3.90;;
1747;SDS011;871;47.034;15.394;2022-09-01T13:01:40;42.27;;;4.33;;
1747;SDS011;871;47.034;15.394;2022-09-01T13:06:58;42.70;;;4.50;;
1747;SDS011;871;47.034;15.394;2022-09-01T13:09:25;42.40;;;4.10;;
1747;SDS011;871;47.034;15.394;2022-09-01T13:12:07;42.80;;;4.43;;
1747;SDS011;871;47.034;15.394;2022-09-01T13:14:33;42.20;;;4.83;;
1747;SDS011;871;47.034;15.394;2022-09-01T13:16:59;41.67;;;4.07;;
1747;SDS011;871;47.034;15.394;2022-09-01T13:19:26;41.60;;;3.90;;
1747;SDS011;871;47.034;15.394;2022-09-01T13:21:52;41.77;;;3.80;;
1747;SDS011;871;47.034;15.394;2022-09-01T13:24:18;40.97;;;3.60;;
1747;SDS011;871;47.034;15.394;2022-09-01T13:26:44;41.40;;;3.87;;
1747;SDS011;871;47.034;15.394;2022-09-01T13:29:10;42.70;;;3.80;;
1747;SDS011;871;47.034;15.394;2022-09-01T13:31:36;44.10;;;3.70;;
1747;SDS011;871;47.034;15.394;2022-09-01T13:34:02;41.53;;;3.43;;
1747;SDS011;871;47.034;15.394;2022-09-01T13:36:28;40.60;;;3.60;;
1747;SDS011;871;47.034;15.394;2022-09-01T13:38:55;40.73;;;3.20;;
1747;SDS011;871;47.034;15.394;2022-09-01T13:41:21;40.77;;;3.80;;
1747;SDS011;871;47.034;15.394;2022-09-01T13:43:47;41.90;;;3.80;;
1747;SDS011;871;47.034;15.394;2022-09-01T13:46:13;40.43;;;3.30;;
1747;SDS011;871;47.034;15.394;2022-09-01T13:48:39;41.70;;;3.40;;
1747;SDS011;871;47.034;15.394;2022-09-01T13:51:06;42.13;;;4.10;;
1747;SDS011;871;47.034;15.394;2022-09-01T13:53:33;42.60;;;4.53;;
1747;SDS011;871;47.034;15.394;2022-09-01T13:55:59;41.40;;;3.87;;
1747;SDS011;871;47.034;15.394;2022-09-01T13:58:25;43.40;;;4.40;;
1747;SDS011;871;47.034;15.394;2022-09-01T14:00:51;45.80;;;5.60;;
1747;SDS011;871;47.034;15.394;2022-09-01T14:03:20;41.50;;;4.50;;
1747;SDS011;871;47.034;15.394;2022-09-01T14:05:47;41.37;;;4.27;;
1747;SDS011;871;47.034;15.394;2022-09-01T14:08:14;42.30;;;4.90;;
1747;SDS011;871;47.034;15.394;2022-09-01T14:10:42;42.50;;;3.83;;
1747;SDS011;871;47.034;15.394;2022-09-01T14:13:09;41.57;;;3.83;;
1747;SDS011;871;47.034;15.394;2022-09-01T14:15:36;41.50;;;3.80;;
1747;SDS011;871;47.034;15.394;2022-09-01T14:18:03;42.03;;;3.87;;
1747;SDS011;871;47.034;15.394;2022-09-01T14:20:32;41.23;;;4.20;;
1747;SDS011;871;47.034;15.394;2022-09-01T14:22:59;43.03;;;3.80;;
1747;SDS011;871;47.034;15.394;2022-09-01T14:25:27;43.00;;;4.40;;
1747;SDS011;871;47.034;15.394;2022-09-01T14:27:54;41.10;;;4.30;;
1747;SDS011;871;47.034;15.394;2022-09-01T14:30:24;41.77;;;4.20;;
1747;SDS011;871;47.034;15.394;2022-09-01T14:32:50;44.23;;;4.27;;
1747;SDS011;871;47.034;15.394;2022-09-01T14:35:17;41.50;;;4.27;;
1747;SDS011;871;47.034;15.394;2022-09-01T14:37:47;41.60;;;4.20;;
1747;SDS011;871;47.034;15.394;2022-09-01T14:40:14;43.97;;;4.70;;
1747;SDS011;871;47.034;15.394;2022-09-01T14:42:41;42.33;;;4.10;;
1747;SDS011;871;47.034;15.394;2022-09-01T14:45:17;44.90;;;4.83;;
1747;SDS011;871;47.034;15.394;2022-09-01T14:47:44;41.60;;;4.00;;
1747;SDS011;871;47.034;15.394;2022-09-01T14:50:11;42.60;;;4.70;;
1747;SDS011;871;47.034;15.394;2022-09-01T14:52:37;41.53;;;3.97;;
1747;SDS011;871;47.034;15.394;2022-09-01T14:55:03;41.60;;;4.43;;
1747;SDS011;871;47.034;15.394;2022-09-01T14:57:30;41.50;;;4.40;;
1747;SDS011;871;47.034;15.394;2022-09-01T14:59:57;41.60;;;4.10;;
1747;SDS011;871;47.034;15.394;2022-09-01T15:02:23;43.40;;;4.03;;
1747;SDS011;871;47.034;15.394;2022-09-01T15:04:50;40.87;;;3.93;;
1747;SDS011;871;47.034;15.394;2022-09-01T15:07:17;42.20;;;4.03;;
1747;SDS011;871;47.034;15.394;2022-09-01T15:09:43;41.80;;;4.23;;
1747;SDS011;871;47.034;15.394;2022-09-01T15:12:09;42.47;;;4.40;;
1747;SDS011;871;47.034;15.394;2022-09-01T15:14:36;42.30;;;4.00;;
1747;SDS011;871;47.034;15.394;2022-09-01T15:17:02;41.60;;;4.17;;
1747;SDS011;871;47.034;15.394;2022-09-01T15:19:29;44.30;;;5.00;;
1747;SDS011;871;47.034;15.394;2022-09-01T15:21:55;42.40;;;4.30;;
1747;SDS011;871;47.034;15.394;2022-09-01T15:24:21;49.20;;;4.20;;
1747;SDS011;871;47.034;15.394;2022-09-01T15:26:47;40.90;;;3.50;;
1747;SDS011;871;47.034;15.394;2022-09-01T15:29:13;40.90;;;2.87;;
1747;SDS011;871;47.034;15.394;2022-09-01T15:31:41;40.40;;;2.43;;
1747;SDS011;871;47.034;15.394;2022-09-01T15:34:07;40.57;;;2.60;;
1747;SDS011;871;47.034;15.394;2022-09-01T15:36:35;39.90;;;2.60;;
1747;SDS011;871;47.034;15.394;2022-09-01T15:39:01;39.90;;;2.67;;
1747;SDS011;871;47.034;15.394;2022-09-01T15:41:30;41.60;;;2.70;;
1747;SDS011;871;47.034;15.394;2022-09-01T15:43:57;40.27;;;2.30;;
1747;SDS011;871;47.034;15.394;2022-09-01T15:46:23;40.80;;;2.30;;
1747;SDS011;871;47.034;15.394;2022-09-01T15:48:56;40.57;;;2.10;;
1747;SDS011;871;47.034;15.394;2022-09-01T15:51:28;43.40;;;2.70;;
1747;SDS011;871;47.034;15.394;2022-09-01T15:53:56;48.30;;;2.80;;
1747;SDS011;871;47.034;15.394;2022-09-01T15:56:22;39.40;;;2.10;;
1747;SDS011;871;47.034;15.394;2022-09-01T15:58:49;39.83;;;2.60;;
1747;SDS011;871;47.034;15.394;2022-09-01T16:01:16;40.97;;;2.73;;
1747;SDS011;871;47.034;15.394;2022-09-01T16:03:43;42.90;;;2.90;;